Time;durP1;ratioP1;P1;durP2;ratioP2;P2;SDS_P1;SDS_P2;PMS_P1;PMS_P2;Temp;Humidity;BMP_temperature;BMP_pressure;BME280_temperature;BME280_humidity;BME280_pressure;Samples;Min_cycle;Max_cycle;Signal;HPM_P1;HPM_P2
2022/08/21 00:00:12;;;;;;;4.57;3.67;;;23.90;56.30;;;;;;5096568;28;20447;-88
2022/08/21 00:02:47;;;;;;;4.13;3.60;;;24.00;56.50;;;;;;5081184;28;20494;-86
2022/08/21 00:05:14;;;;;;;5.20;4.10;;;24.10;55.00;;;;;;5077267;28;20934;-86
2022/08/21 00:07:41;;;;;;;4.17;3.77;;;24.20;54.90;;;;;;5078103;28;20471;-87
2022/08/21 00:10:12;;;;;;;4.00;3.70;;;24.20;54.60;;;;;;5064186;28;20447;-89
2022/08/21 00:12:40;;;;;;;4.00;3.60;;;24.20;54.60;;;;;;5061424;28;20478;-87
2022/08/21 00:15:08;;;;;;;9.00;3.90;;;24.20;54.60;;;;;;5068583;28;20458;-89
2022/08/21 00:17:36;;;;;;;3.60;3.30;;;24.20;54.60;;;;;;5047424;28;20462;-88
2022/08/21 00:20:05;;;;;;;6.57;3.87;;;24.20;54.60;;;;;;5063730;28;20455;-88
2022/08/21 00:22:32;;;;;;;5.60;4.30;;;24.20;54.60;;;;;;5070211;28;20485;-87
2022/08/21 00:24:59;;;;;;;5.93;5.33;;;24.10;54.70;;;;;;5064201;28;20453;-88
2022/08/21 00:27:28;;;;;;;4.87;4.30;;;24.10;54.70;;;;;;5062525;28;20447;-88
2022/08/21 00:29:55;;;;;;;4.80;4.33;;;24.00;54.50;;;;;;5048899;28;20501;-88
2022/08/21 00:32:23;;;;;;;5.80;4.50;;;24.00;54.10;;;;;;5053678;28;20842;-89
2022/08/21 00:34:50;;;;;;;4.80;4.40;;;24.00;53.80;;;;;;5079870;28;20477;-91
2022/08/21 00:37:18;;;;;;;4.63;4.33;;;24.00;53.80;;;;;;5087547;28;21123;-88
2022/08/21 00:39:46;;;;;;;5.47;5.00;;;24.00;53.70;;;;;;5068503;28;20447;-88
2022/08/21 00:42:14;;;;;;;3.97;3.57;;;23.90;53.90;;;;;;5074460;28;20470;-88
2022/08/21 00:44:44;;;;;;;4.87;4.10;;;23.90;53.90;;;;;;5048262;28;20844;-87
2022/08/21 00:47:11;;;;;;;5.70;4.90;;;23.90;53.80;;;;;;5084319;28;20462;-88
2022/08/21 00:49:39;;;;;;;5.17;4.70;;;23.80;53.70;;;;;;5069859;28;21116;-88
2022/08/21 00:52:10;;;;;;;4.80;4.17;;;23.80;53.80;;;;;;5067174;28;20494;-89
2022/08/21 00:54:39;;;;;;;6.43;5.30;;;23.70;54.10;;;;;;5077685;28;20549;-88
2022/08/21 00:57:13;;;;;;;5.50;4.40;;;23.70;53.60;;;;;;5071213;28;20443;-88
2022/08/21 00:59:44;;;;;;;7.17;4.87;;;23.60;53.70;;;;;;5078233;28;20502;-88
2022/08/21 01:02:13;;;;;;;6.23;5.20;;;23.60;53.90;;;;;;5063784;28;20491;-90
2022/08/21 01:04:41;;;;;;;5.87;5.00;;;23.60;53.70;;;;;;5053781;28;20451;-88
2022/08/21 01:07:08;;;;;;;6.07;5.20;;;23.50;53.40;;;;;;5063202;28;20965;-87
2022/08/21 01:09:36;;;;;;;5.37;4.33;;;23.50;53.40;;;;;;5054726;28;20449;-88
2022/08/21 01:12:04;;;;;;;5.80;5.20;;;23.50;53.50;;;;;;5078088;28;20460;-89
2022/08/21 01:14:31;;;;;;;6.10;5.50;;;23.50;53.50;;;;;;5063075;28;20495;-88
2022/08/21 01:17:02;;;;;;;5.40;4.73;;;23.50;53.50;;;;;;5077626;28;20447;-88
2022/08/21 01:19:30;;;;;;;5.57;5.00;;;23.50;53.60;;;;;;5068996;28;20478;-89
2022/08/21 01:22:00;;;;;;;6.23;4.67;;;23.40;53.30;;;;;;5069503;28;20841;-87
2022/08/21 01:24:27;;;;;;;6.70;5.93;;;23.40;53.30;;;;;;5060875;28;20448;-88
2022/08/21 01:26:54;;;;;;;5.50;5.00;;;23.40;53.30;;;;;;5053309;28;20530;-87
2022/08/21 01:29:31;;;;;;;5.50;5.00;;;23.30;53.40;;;;;;5066044;28;20454;-87
2022/08/21 01:31:59;;;;;;;6.67;4.50;;;23.30;53.70;;;;;;5049571;28;20479;-88
2022/08/21 01:34:26;;;;;;;7.30;4.80;;;23.30;54.00;;;;;;5077518;28;20563;-85
2022/08/21 01:36:53;;;;;;;6.30;5.43;;;23.20;54.00;;;;;;5071675;28;20452;-87
2022/08/21 01:39:22;;;;;;;5.03;4.53;;;23.20;54.10;;;;;;5076090;28;20465;-87
2022/08/21 01:41:49;;;;;;;6.20;5.60;;;23.20;53.90;;;;;;5077318;28;20537;-90
2022/08/21 01:44:17;;;;;;;5.80;5.20;;;23.20;54.00;;;;;;5051465;28;20525;-88
2022/08/21 01:46:44;;;;;;;6.60;5.83;;;23.10;54.20;;;;;;5052682;28;20543;-87
2022/08/21 01:49:11;;;;;;;7.70;6.87;;;23.10;54.00;;;;;;5079344;28;20451;-88
2022/08/21 01:51:38;;;;;;;8.60;6.20;;;23.00;54.00;;;;;;5057181;28;20479;-87
2022/08/21 01:54:06;;;;;;;6.73;5.50;;;22.90;54.80;;;;;;5060080;28;20486;-88
2022/08/21 01:56:38;;;;;;;9.13;5.63;;;22.90;54.80;;;;;;5062224;28;20440;-88
2022/08/21 01:59:06;;;;;;;8.23;6.17;;;23.00;54.60;;;;;;5075861;28;20942;-87
2022/08/21 02:01:33;;;;;;;6.60;5.67;;;23.00;54.50;;;;;;5077640;28;20479;-89
2022/08/21 02:04:01;;;;;;;9.10;6.47;;;22.90;54.80;;;;;;5060573;28;20446;-87
2022/08/21 02:06:29;;;;;;;7.57;5.80;;;22.90;55.60;;;;;;5067085;28;20465;-89
2022/08/21 02:08:56;;;;;;;7.37;5.73;;;22.90;55.50;;;;;;5060530;28;20455;-88
2022/08/21 02:11:23;;;;;;;7.57;5.53;;;22.90;55.30;;;;;;5075896;28;21016;-89
2022/08/21 02:13:52;;;;;;;6.87;5.60;;;22.90;55.60;;;;;;5051844;28;20991;-87
2022/08/21 02:16:19;;;;;;;6.93;6.17;;;22.90;55.30;;;;;;5041019;28;20474;-89
2022/08/21 02:18:46;;;;;;;9.53;6.77;;;22.90;55.50;;;;;;5063445;28;20463;-87
2022/08/21 02:21:13;;;;;;;8.87;7.20;;;22.60;55.60;;;;;;5075194;28;20726;-88
2022/08/21 02:23:41;;;;;;;7.80;5.97;;;22.20;56.70;;;;;;5058197;28;20530;-87
2022/08/21 02:26:09;;;;;;;6.40;5.57;;;21.90;57.70;;;;;;5077256;28;20482;-89
2022/08/21 02:28:39;;;;;;;7.27;5.97;;;21.80;58.10;;;;;;5042973;28;20447;-89
2022/08/21 02:31:08;;;;;;;6.13;5.50;;;22.10;57.40;;;;;;5050990;28;20456;-89
2022/08/21 02:33:35;;;;;;;7.43;6.53;;;22.20;56.90;;;;;;5081090;28;20486;-88
2022/08/21 02:36:03;;;;;;;8.63;6.90;;;22.40;56.80;;;;;;5051017;28;20447;-88
2022/08/21 02:38:37;;;;;;;9.10;6.83;;;22.40;56.50;;;;;;5057751;28;20522;-89
2022/08/21 02:41:07;;;;;;;7.67;5.70;;;22.50;56.50;;;;;;5074035;28;20447;-89
2022/08/21 02:43:35;;;;;;;7.70;6.63;;;22.40;56.40;;;;;;5056738;28;20516;-88
2022/08/21 02:46:04;;;;;;;7.73;5.40;;;22.50;56.60;;;;;;5044681;28;20502;-88
2022/08/21 02:48:34;;;;;;;10.57;6.80;;;22.50;56.60;;;;;;5050346;28;20443;-88
2022/08/21 02:51:03;;;;;;;7.00;5.60;;;22.60;56.80;;;;;;5041860;28;20462;-88
2022/08/21 02:53:31;;;;;;;7.77;6.30;;;22.60;56.70;;;;;;5080152;28;21131;-88
2022/08/21 02:56:00;;;;;;;19.10;8.00;;;22.60;56.50;;;;;;5044266;28;20472;-88
2022/08/21 02:58:33;;;;;;;9.40;8.23;;;22.60;56.80;;;;;;5050630;28;20544;-85
2022/08/21 03:01:01;;;;;;;11.40;8.40;;;22.50;57.50;;;;;;5050688;28;20970;-88
2022/08/21 03:03:29;;;;;;;11.17;7.93;;;22.50;57.30;;;;;;5075779;28;20751;-87
2022/08/21 03:05:57;;;;;;;11.73;7.90;;;22.60;57.20;;;;;;5052742;28;20462;-87
2022/08/21 03:08:25;;;;;;;8.67;6.90;;;22.60;57.00;;;;;;5070806;28;20478;-87
2022/08/21 03:10:53;;;;;;;8.20;7.23;;;22.60;57.20;;;;;;5063025;28;20491;-88
2022/08/21 03:13:21;;;;;;;11.63;7.53;;;22.60;57.20;;;;;;5049852;28;20482;-88
2022/08/21 03:15:49;;;;;;;8.40;7.13;;;22.60;57.10;;;;;;5067176;28;20462;-89
2022/08/21 03:18:16;;;;;;;9.60;6.90;;;22.60;56.60;;;;;;5065238;28;20463;-88
2022/08/21 03:20:44;;;;;;;11.77;8.33;;;22.60;55.90;;;;;;5060537;28;20475;-88
2022/08/21 03:23:13;;;;;;;8.90;7.57;;;22.60;56.00;;;;;;5062136;28;20562;-87
2022/08/21 03:25:41;;;;;;;15.50;7.97;;;22.60;55.80;;;;;;5062633;28;20444;-88
2022/08/21 03:28:11;;;;;;;24.27;8.10;;;22.50;56.10;;;;;;5059607;28;20458;-87
2022/08/21 03:30:39;;;;;;;17.63;8.87;;;21.80;57.70;;;;;;5084027;28;20447;-87
2022/08/21 03:33:06;;;;;;;17.47;7.93;;;21.40;59.00;;;;;;5050225;28;20866;-89
2022/08/21 03:35:34;;;;;;;15.73;7.70;;;21.50;58.80;;;;;;5075136;28;20481;-87
2022/08/21 03:38:01;;;;;;;15.17;8.20;;;21.70;58.30;;;;;;5068868;28;20830;-87
2022/08/21 03:40:29;;;;;;;8.10;7.20;;;21.90;58.10;;;;;;5051920;28;21236;-87
2022/08/21 03:42:56;;;;;;;10.23;7.00;;;21.80;58.80;;;;;;5047204;28;20981;-87
2022/08/21 03:45:23;;;;;;;13.27;7.97;;;21.90;57.70;;;;;;5058076;28;20554;-87
2022/08/21 03:47:57;;;;;;;11.30;8.90;;;22.00;57.40;;;;;;5066956;28;20554;-88
2022/08/21 03:50:25;;;;;;;10.33;7.83;;;22.10;57.50;;;;;;5076409;28;20472;-88
2022/08/21 03:52:52;;;;;;;12.90;8.97;;;22.10;57.10;;;;;;5066780;28;20847;-87
2022/08/21 03:55:19;;;;;;;28.50;10.57;;;22.10;57.20;;;;;;5074496;28;20471;-88
2022/08/21 03:57:47;;;;;;;16.70;9.50;;;22.10;57.50;;;;;;5051902;28;20451;-87
2022/08/21 04:00:16;;;;;;;16.33;10.90;;;22.00;57.60;;;;;;5073935;28;21369;-87
2022/08/21 04:02:44;;;;;;;12.33;8.97;;;22.10;57.40;;;;;;5094269;28;20483;-88
2022/08/21 04:05:13;;;;;;;20.60;11.20;;;22.00;57.40;;;;;;5072030;28;20474;-88
2022/08/21 04:07:41;;;;;;;17.73;9.77;;;22.00;57.30;;;;;;5060169;28;21030;-90
2022/08/21 04:10:09;;;;;;;14.30;9.67;;;21.90;57.50;;;;;;5067134;28;20447;-90
2022/08/21 04:12:37;;;;;;;80.73;14.70;;;22.00;57.70;;;;;;5066355;28;20490;-89
2022/08/21 04:15:06;;;;;;;14.10;9.17;;;21.90;57.70;;;;;;5049408;28;20463;-90
2022/08/21 04:17:34;;;;;;;17.20;8.80;;;21.90;58.00;;;;;;5098242;28;20443;-88
2022/08/21 04:20:01;;;;;;;10.07;8.07;;;21.90;58.00;;;;;;5069235;28;20512;-86
2022/08/21 04:22:28;;;;;;;14.20;8.10;;;21.90;57.90;;;;;;5061688;28;20549;-88
2022/08/21 04:24:55;;;;;;;11.17;7.70;;;22.00;57.90;;;;;;5051414;28;20451;-87
2022/08/21 04:27:23;;;;;;;12.10;8.40;;;21.90;57.90;;;;;;5065217;28;20533;-87
2022/08/21 04:29:50;;;;;;;17.70;8.67;;;22.00;57.90;;;;;;5054549;28;20451;-86
2022/08/21 04:32:24;;;;;;;13.30;8.97;;;21.90;58.00;;;;;;5081592;28;20474;-85
2022/08/21 04:34:51;;;;;;;27.87;10.83;;;21.90;58.00;;;;;;5056122;28;20804;-86
2022/08/21 04:37:18;;;;;;;22.90;8.60;;;21.80;58.40;;;;;;5076187;28;20587;-86
2022/08/21 04:39:45;;;;;;;32.27;9.30;;;21.80;58.00;;;;;;5057608;28;20450;-86
2022/08/21 04:42:12;;;;;;;13.70;8.50;;;21.90;58.40;;;;;;5090832;28;20983;-84
2022/08/21 04:44:40;;;;;;;14.90;7.17;;;21.80;58.00;;;;;;5073763;28;20444;-85
2022/08/21 04:47:08;;;;;;;27.30;9.40;;;21.60;57.80;;;;;;5058751;28;20989;-86
2022/08/21 04:49:36;;;;;;;10.03;7.83;;;21.60;57.50;;;;;;5092901;28;20446;-88
2022/08/21 04:52:04;;;;;;;12.20;7.87;;;21.50;58.10;;;;;;5073381;28;20486;-89
2022/08/21 04:54:31;;;;;;;10.40;8.00;;;21.50;58.30;;;;;;5093521;28;20463;-86
2022/08/21 04:57:03;;;;;;;10.30;8.10;;;21.60;57.30;;;;;;5095591;28;20495;-87
2022/08/21 04:59:36;;;;;;;10.40;8.17;;;21.70;57.10;;;;;;5075166;28;20493;-86
2022/08/21 05:02:04;;;;;;;8.87;7.00;;;21.80;57.10;;;;;;5078633;28;21008;-87
2022/08/21 05:04:33;;;;;;;8.53;7.00;;;21.80;57.70;;;;;;5091913;28;20451;-86
2022/08/21 05:07:05;;;;;;;11.37;8.10;;;21.80;57.20;;;;;;5092200;28;20447;-86
2022/08/21 05:09:33;;;;;;;8.30;6.93;;;21.90;57.30;;;;;;5093325;28;21211;-85
2022/08/21 05:12:02;;;;;;;10.83;8.03;;;21.80;57.10;;;;;;5076668;28;20482;-87
2022/08/21 05:14:29;;;;;;;8.20;6.97;;;21.80;57.10;;;;;;5042358;28;20811;-85
2022/08/21 05:16:56;;;;;;;7.53;6.73;;;21.90;56.70;;;;;;5093387;28;20454;-86
2022/08/21 05:19:23;;;;;;;8.43;6.93;;;21.90;57.00;;;;;;5075455;28;20451;-87
2022/08/21 05:21:50;;;;;;;11.37;7.97;;;22.00;56.80;;;;;;5094336;28;20495;-88
2022/08/21 05:24:18;;;;;;;9.30;7.57;;;22.00;56.20;;;;;;5058739;28;20447;-87
2022/08/21 05:26:46;;;;;;;10.07;7.93;;;22.10;55.90;;;;;;5071283;28;20447;-87
2022/08/21 05:29:14;;;;;;;8.77;7.00;;;22.10;55.70;;;;;;5083963;28;20442;-87
2022/08/21 05:31:41;;;;;;;9.10;8.13;;;22.10;55.70;;;;;;5069151;28;21000;-87
2022/08/21 05:34:08;;;;;;;12.80;8.77;;;22.10;56.00;;;;;;5078385;28;20447;-88
2022/08/21 05:36:35;;;;;;;7.53;6.50;;;22.10;56.00;;;;;;5094338;28;20557;-87
2022/08/21 05:39:03;;;;;;;10.93;7.77;;;22.10;56.10;;;;;;5094135;28;20439;-84
2022/08/21 05:41:31;;;;;;;11.33;7.40;;;22.20;56.30;;;;;;5075387;28;20478;-85
2022/08/21 05:43:59;;;;;;;7.03;5.97;;;22.10;56.10;;;;;;5072401;28;20440;-86
2022/08/21 05:46:26;;;;;;;7.70;6.90;;;22.20;56.50;;;;;;5093721;28;20454;-86
2022/08/21 05:48:53;;;;;;;7.30;6.50;;;22.30;55.80;;;;;;5073398;28;20464;-86
2022/08/21 05:51:20;;;;;;;11.40;8.30;;;22.30;55.20;;;;;;5092166;28;20550;-87
2022/08/21 05:53:47;;;;;;;9.10;6.70;;;22.40;55.40;;;;;;5079686;28;20451;-86
2022/08/21 05:56:14;;;;;;;9.80;8.07;;;22.40;55.20;;;;;;5060940;28;20968;-86
2022/08/21 05:58:43;;;;;;;10.17;7.80;;;22.40;55.40;;;;;;5075695;28;20456;-87
2022/08/21 06:01:10;;;;;;;9.03;8.13;;;22.50;55.00;;;;;;5092892;28;20457;-85
2022/08/21 06:03:39;;;;;;;8.47;7.40;;;22.50;54.90;;;;;;5075935;28;20681;-86
2022/08/21 06:06:07;;;;;;;10.43;7.40;;;22.30;55.40;;;;;;5085933;28;20968;-86
2022/08/21 06:08:35;;;;;;;11.03;8.63;;;22.40;55.20;;;;;;5094116;28;20455;-87
2022/08/21 06:11:03;;;;;;;11.90;8.93;;;22.40;54.90;;;;;;5066769;28;20447;-87
2022/08/21 06:13:30;;;;;;;10.47;8.87;;;22.40;54.90;;;;;;5074686;28;20530;-87
2022/08/21 06:16:11;;;;;;;8.93;7.73;;;22.30;55.30;;;;;;5077578;28;20979;-86
2022/08/21 06:18:39;;;;;;;9.40;8.40;;;22.30;55.50;;;;;;5069346;28;20467;-88
2022/08/21 06:21:07;;;;;;;11.27;9.87;;;22.20;55.40;;;;;;5094234;28;20447;-88
2022/08/21 06:23:34;;;;;;;9.27;7.43;;;22.20;55.20;;;;;;5066754;28;20450;-86
2022/08/21 06:26:03;;;;;;;10.47;8.00;;;22.20;55.60;;;;;;5079453;28;20479;-86
2022/08/21 06:28:31;;;;;;;12.77;8.73;;;22.20;55.50;;;;;;5044855;28;20450;-89
2022/08/21 06:30:58;;;;;;;8.90;7.27;;;22.30;55.50;;;;;;5074019;28;20448;-87
2022/08/21 06:33:27;;;;;;;9.10;8.17;;;22.30;55.90;;;;;;5074877;28;20529;-88
2022/08/21 06:35:54;;;;;;;10.13;8.00;;;22.40;56.10;;;;;;5070489;28;20813;-87
2022/08/21 06:38:21;;;;;;;8.67;7.73;;;22.40;55.80;;;;;;5069968;28;20446;-88
2022/08/21 06:40:48;;;;;;;9.60;8.47;;;22.40;55.70;;;;;;5060832;28;20455;-89
2022/08/21 06:43:17;;;;;;;7.80;6.50;;;22.60;54.70;;;;;;5080288;28;21025;-88
2022/08/21 06:45:45;;;;;;;7.80;7.00;;;22.60;54.80;;;;;;5089226;28;20444;-88
2022/08/21 06:48:12;;;;;;;9.33;7.17;;;22.70;54.80;;;;;;5070321;28;20493;-87
2022/08/21 06:50:40;;;;;;;9.67;7.70;;;22.70;54.40;;;;;;5074665;28;20931;-88
2022/08/21 06:53:10;;;;;;;11.27;7.93;;;22.70;54.00;;;;;;5073307;28;20470;-89
2022/08/21 06:55:38;;;;;;;11.30;8.37;;;22.80;54.10;;;;;;5089249;28;20491;-86
2022/08/21 06:58:06;;;;;;;9.77;8.60;;;22.90;53.50;;;;;;5088731;28;20447;-87
2022/08/21 07:00:33;;;;;;;14.13;9.57;;;23.00;53.40;;;;;;5087563;28;20447;-88
2022/08/21 07:03:00;;;;;;;9.70;8.70;;;23.10;53.70;;;;;;5087723;28;20884;-88
2022/08/21 07:05:28;;;;;;;14.70;8.70;;;23.10;53.80;;;;;;5069160;28;20804;-87
2022/08/21 07:07:57;;;;;;;8.33;6.90;;;23.20;53.30;;;;;;5054916;28;20455;-87
2022/08/21 07:10:24;;;;;;;10.43;6.90;;;23.20;53.20;;;;;;5084884;28;20945;-87
2022/08/21 07:12:52;;;;;;;7.70;6.73;;;23.30;52.70;;;;;;5085613;28;20472;-85
2022/08/21 07:15:19;;;;;;;9.00;7.37;;;23.40;52.60;;;;;;5049883;28;20503;-87
2022/08/21 07:17:46;;;;;;;13.73;8.20;;;23.50;52.10;;;;;;5068609;28;20444;-88
2022/08/21 07:20:13;;;;;;;9.73;7.40;;;23.70;51.70;;;;;;5086512;28;20499;-87
2022/08/21 07:22:41;;;;;;;8.10;7.30;;;23.90;51.60;;;;;;5074393;28;21208;-88
2022/08/21 07:25:10;;;;;;;11.63;7.60;;;24.00;51.50;;;;;;5087192;28;20513;-89
2022/08/21 07:27:37;;;;;;;9.50;6.87;;;24.10;51.40;;;;;;5062825;28;21090;-87
2022/08/21 07:30:06;;;;;;;8.90;7.17;;;24.10;51.30;;;;;;5070931;28;20482;-90
2022/08/21 07:32:33;;;;;;;8.30;6.30;;;24.10;51.10;;;;;;5088011;28;20467;-87
2022/08/21 07:35:00;;;;;;;10.07;7.13;;;24.10;50.90;;;;;;5088369;28;20794;-86
2022/08/21 07:37:27;;;;;;;8.57;7.07;;;24.30;50.90;;;;;;5086284;28;20451;-88
2022/08/21 07:39:54;;;;;;;9.40;8.00;;;24.40;50.60;;;;;;5067737;28;20554;-87
2022/08/21 07:42:23;;;;;;;7.67;6.90;;;24.40;50.00;;;;;;5091645;28;20562;-88
2022/08/21 07:44:50;;;;;;;7.93;6.63;;;24.50;50.40;;;;;;5067068;28;20865;-88
2022/08/21 07:47:17;;;;;;;9.63;6.43;;;24.50;50.10;;;;;;5087077;28;20860;-89
2022/08/21 07:49:46;;;;;;;6.87;6.17;;;24.60;50.20;;;;;;5086936;28;20471;-89
2022/08/21 07:52:13;;;;;;;6.63;6.03;;;24.60;49.90;;;;;;5091627;28;20478;-87
2022/08/21 07:54:40;;;;;;;8.73;6.40;;;24.70;50.10;;;;;;5056714;28;20522;-89
2022/08/21 07:57:07;;;;;;;9.53;6.50;;;24.70;50.50;;;;;;5073564;28;20474;-90
2022/08/21 07:59:35;;;;;;;11.20;6.17;;;24.60;50.00;;;;;;5071125;28;20879;-90
2022/08/21 08:02:02;;;;;;;8.70;5.90;;;24.60;50.00;;;;;;5072155;28;20558;-88
2022/08/21 08:04:29;;;;;;;8.13;7.30;;;24.70;49.80;;;;;;5072600;28;20629;-88
2022/08/21 08:06:56;;;;;;;7.57;6.47;;;24.80;49.80;;;;;;5072524;28;20990;-87
2022/08/21 08:09:24;;;;;;;8.03;6.13;;;25.20;49.40;;;;;;5091271;28;20808;-87
2022/08/21 08:11:51;;;;;;;7.90;6.03;;;25.20;48.90;;;;;;5090266;28;20478;-90
2022/08/21 08:14:18;;;;;;;6.70;5.57;;;25.20;48.80;;;;;;5078882;28;20458;-88
2022/08/21 08:16:46;;;;;;;8.00;5.57;;;25.40;48.90;;;;;;5081722;28;20898;-88
2022/08/21 08:19:14;;;;;;;10.13;6.13;;;25.50;48.80;;;;;;5088571;28;20450;-88
2022/08/21 08:21:41;;;;;;;7.13;5.50;;;25.50;48.60;;;;;;5087623;28;20592;-88
2022/08/21 08:24:08;;;;;;;5.30;4.90;;;25.50;49.00;;;;;;5087954;28;20449;-89
2022/08/21 08:26:35;;;;;;;5.53;4.97;;;25.50;49.10;;;;;;5073698;28;20439;-87
2022/08/21 08:29:02;;;;;;;5.67;5.17;;;25.80;48.90;;;;;;5092195;28;20528;-87
2022/08/21 08:31:29;;;;;;;10.20;5.23;;;25.90;48.80;;;;;;5076287;28;20463;-89
2022/08/21 08:33:58;;;;;;;13.37;7.40;;;25.90;48.70;;;;;;5067428;28;20478;-88
2022/08/21 08:36:33;;;;;;;24.67;7.60;;;26.10;48.10;;;;;;5077147;28;20551;-89
2022/08/21 08:39:01;;;;;;;13.83;6.63;;;26.20;48.20;;;;;;5089690;28;20445;-88
2022/08/21 08:41:30;;;;;;;8.57;5.00;;;26.50;48.40;;;;;;5056810;28;20462;-88
2022/08/21 08:44:02;;;;;;;6.93;5.63;;;26.50;47.70;;;;;;5059095;28;20706;-88
2022/08/21 08:46:35;;;;;;;9.30;6.43;;;26.60;48.00;;;;;;5094312;28;20435;-89
2022/08/21 08:49:08;;;;;;;6.20;5.60;;;26.60;48.00;;;;;;5077137;28;20443;-88
2022/08/21 08:51:47;;;;;;;6.40;4.40;;;26.60;47.80;;;;;;5093131;28;20471;-88
2022/08/21 08:54:20;;;;;;;5.83;4.40;;;26.70;47.80;;;;;;5094987;28;20454;-88
2022/08/21 08:56:47;;;;;;;4.60;3.70;;;26.90;47.80;;;;;;5056909;28;20529;-88
2022/08/21 08:59:19;;;;;;;6.67;3.53;;;27.00;47.60;;;;;;5072187;28;20455;-88
2022/08/21 09:01:47;;;;;;;4.60;4.10;;;27.10;47.60;;;;;;5066698;28;20544;-88
2022/08/21 09:04:23;;;;;;;4.23;3.83;;;27.00;47.50;;;;;;5062140;28;20455;-90
2022/08/21 09:07:02;;;;;;;4.43;4.03;;;27.10;46.60;;;;;;5079772;28;20450;-89
2022/08/21 09:09:42;;;;;;;3.17;2.87;;;27.30;47.20;;;;;;5077098;28;20489;-90
2022/08/21 09:12:16;;;;;;;4.27;3.80;;;27.30;46.60;;;;;;5052520;28;20567;-91
2022/08/21 09:14:55;;;;;;;4.47;3.90;;;27.30;46.00;;;;;;5047214;28;20455;-88
2022/08/21 09:17:36;;;;;;;6.73;4.40;;;27.30;45.30;;;;;;5085308;28;20474;-87
2022/08/21 09:20:18;;;;;;;5.03;3.80;;;27.60;44.80;;;;;;5076613;28;20460;-88
2022/08/21 09:22:55;;;;;;;4.30;3.90;;;27.70;43.80;;;;;;5069212;28;20469;-87
2022/08/21 09:25:26;;;;;;;4.00;3.33;;;28.00;43.40;;;;;;5075760;28;20451;-88
2022/08/21 09:27:53;;;;;;;3.40;3.10;;;28.30;41.80;;;;;;5065971;28;20439;-89
2022/08/21 09:30:26;;;;;;;4.80;3.60;;;28.50;41.70;;;;;;5076543;28;20457;-87
2022/08/21 09:32:53;;;;;;;3.60;3.30;;;28.60;40.50;;;;;;5045279;28;20467;-87
2022/08/21 09:35:23;;;;;;;7.70;4.70;;;28.80;40.50;;;;;;5084762;28;20444;-87
2022/08/21 09:37:55;;;;;;;4.33;3.87;;;28.80;39.20;;;;;;5051866;28;20462;-89
2022/08/21 09:40:33;;;;;;;4.40;4.00;;;28.90;40.00;;;;;;5068204;28;20442;-87
2022/08/21 09:43:03;;;;;;;6.10;3.20;;;29.20;38.80;;;;;;5060934;28;20659;-87
2022/08/21 09:45:32;;;;;;;5.40;3.80;;;29.10;38.90;;;;;;5075726;28;20451;-88
2022/08/21 09:48:10;;;;;;;5.73;3.80;;;29.00;39.50;;;;;;5077855;28;21307;-88
2022/08/21 09:50:39;;;;;;;4.37;3.90;;;29.10;39.20;;;;;;5100204;28;20958;-87
2022/08/21 09:53:17;;;;;;;3.60;3.40;;;29.30;39.60;;;;;;5046239;28;20495;-88
2022/08/21 09:58:37;;;;;;;4.23;3.93;;;29.60;38.90;;;;;;5049992;28;20831;-87
2022/08/21 10:01:06;;;;;;;4.33;3.77;;;29.40;38.00;;;;;;5059796;28;20463;-87
2022/08/21 10:03:34;;;;;;;4.97;3.57;;;29.40;38.90;;;;;;5079569;28;20535;-87
2022/08/21 10:06:08;;;;;;;4.17;3.80;;;29.60;38.40;;;;;;5059843;28;20447;-87
2022/08/21 10:08:37;;;;;;;4.60;4.23;;;29.40;37.80;;;;;;5048812;28;20487;-88
2022/08/21 10:11:07;;;;;;;3.87;3.40;;;29.10;38.70;;;;;;5046972;28;20458;-87
2022/08/21 10:13:53;;;;;;;4.07;3.77;;;29.10;39.30;;;;;;5070140;28;20446;-86
2022/08/21 10:16:31;;;;;;;4.17;3.83;;;29.50;38.90;;;;;;5089194;28;20459;-87
2022/08/21 10:19:11;;;;;;;4.63;4.10;;;29.60;38.10;;;;;;5089131;28;20466;-88
2022/08/21 10:21:45;;;;;;;5.80;3.90;;;29.50;37.70;;;;;;5059523;28;20469;-88
2022/08/21 10:24:23;;;;;;;4.80;4.30;;;29.20;38.70;;;;;;5072062;28;20451;-86
2022/08/21 10:27:02;;;;;;;4.60;3.93;;;29.40;39.30;;;;;;5091477;28;20439;-87
2022/08/21 10:29:45;;;;;;;5.43;4.03;;;29.50;38.00;;;;;;5085206;28;20534;-87
2022/08/21 10:32:22;;;;;;;4.17;3.80;;;29.30;38.40;;;;;;5086083;28;20548;-85
2022/08/21 10:34:59;;;;;;;7.17;4.27;;;29.20;38.70;;;;;;5071172;28;20447;-86
2022/08/21 10:37:43;;;;;;;12.10;5.43;;;28.90;38.90;;;;;;5072724;28;20993;-87
2022/08/21 10:40:22;;;;;;;4.50;3.50;;;28.90;39.70;;;;;;5092790;28;20453;-89
2022/08/21 10:42:59;;;;;;;4.10;3.70;;;29.00;39.90;;;;;;5057305;28;20474;-86
2022/08/21 10:45:39;;;;;;;5.17;4.13;;;29.00;39.60;;;;;;5072049;28;20448;-87
2022/08/21 10:48:13;;;;;;;4.20;3.83;;;29.00;38.00;;;;;;5058231;28;20443;-87
2022/08/21 10:50:49;;;;;;;4.33;3.97;;;29.00;38.00;;;;;;5089733;28;20454;-88
2022/08/21 10:53:38;;;;;;;7.70;4.40;;;29.50;38.30;;;;;;5088437;28;20467;-87
2022/08/21 10:56:15;;;;;;;4.03;3.47;;;30.00;36.70;;;;;;5071577;28;20439;-87
2022/08/21 10:58:50;;;;;;;5.90;3.60;;;30.40;36.20;;;;;;5060833;28;20629;-87
2022/08/21 11:01:23;;;;;;;5.23;3.60;;;30.60;33.70;;;;;;5088598;28;20473;-86
2022/08/21 11:03:55;;;;;;;5.87;4.00;;;30.30;33.80;;;;;;5069822;28;20440;-88
2022/08/21 11:06:25;;;;;;;3.90;3.27;;;30.10;34.60;;;;;;5071089;28;20436;-87
2022/08/21 11:08:59;;;;;;;6.97;3.53;;;30.00;33.30;;;;;;5072298;28;20451;-87
2022/08/21 11:11:28;;;;;;;3.27;2.97;;;29.90;31.00;;;;;;5084264;28;20463;-86
2022/08/21 11:14:00;;;;;;;3.37;3.07;;;30.10;30.80;;;;;;5084820;28;20454;-87
2022/08/21 11:16:34;;;;;;;6.00;3.00;;;30.50;31.00;;;;;;5089817;28;20969;-91
2022/08/21 11:19:07;;;;;;;6.50;3.67;;;30.80;31.20;;;;;;5053598;28;20535;-89
2022/08/21 11:21:39;;;;;;;3.63;3.33;;;31.10;29.70;;;;;;5058779;28;20523;-87
2022/08/21 11:24:22;;;;;;;3.10;2.90;;;31.40;29.90;;;;;;5057998;28;20532;-89
2022/08/21 11:26:57;;;;;;;4.17;3.70;;;31.20;30.20;;;;;;5060516;28;20577;-89
2022/08/21 11:29:28;;;;;;;4.07;3.50;;;30.90;30.40;;;;;;5049156;28;20446;-87
2022/08/21 11:32:13;;;;;;;3.60;2.90;;;30.70;31.50;;;;;;5075907;28;20479;-87
2022/08/21 11:34:57;;;;;;;4.67;3.23;;;30.30;31.50;;;;;;5078448;28;20442;-87
2022/08/21 11:37:36;;;;;;;5.97;3.10;;;30.30;31.50;;;;;;5097393;28;20454;-89
2022/08/21 11:40:11;;;;;;;3.90;3.30;;;30.40;30.40;;;;;;5081971;28;20434;-88
2022/08/21 11:42:44;;;;;;;3.20;2.90;;;30.40;30.70;;;;;;5063520;28;20460;-91
2022/08/21 11:45:24;;;;;;;3.30;3.00;;;30.40;31.00;;;;;;5061595;28;20439;-88
2022/08/21 11:48:00;;;;;;;3.87;2.50;;;30.70;31.40;;;;;;5078798;28;20453;-88
2022/08/21 11:50:30;;;;;;;3.10;2.80;;;31.00;29.70;;;;;;5087785;28;20447;-90
2022/08/21 11:53:02;;;;;;;3.20;2.90;;;31.00;29.80;;;;;;5078099;28;20562;-88
2022/08/21 11:55:36;;;;;;;3.37;3.10;;;31.50;29.50;;;;;;5079919;28;20972;-89
2022/08/21 11:58:11;;;;;;;4.27;2.77;;;31.90;28.60;;;;;;5079647;28;20466;-88
2022/08/21 12:00:43;;;;;;;4.37;2.93;;;32.00;27.40;;;;;;5064284;28;20566;-87
2022/08/21 12:03:14;;;;;;;4.23;3.10;;;32.00;27.10;;;;;;5054095;28;20467;-88
2022/08/21 12:05:47;;;;;;;4.03;2.60;;;31.80;27.80;;;;;;5080906;28;20460;-88
2022/08/21 12:08:26;;;;;;;5.70;2.53;;;31.60;27.20;;;;;;5049413;28;20448;-87
2022/08/21 12:11:06;;;;;;;3.23;2.87;;;31.60;28.00;;;;;;5092603;28;20437;-87
2022/08/21 12:13:36;;;;;;;2.97;2.67;;;31.70;27.60;;;;;;5063341;28;21049;-88
2022/08/21 12:16:08;;;;;;;3.50;3.20;;;31.80;28.20;;;;;;5083292;28;20447;-89
2022/08/21 12:18:37;;;;;;;2.97;2.50;;;32.10;26.90;;;;;;5095962;28;20849;-87
2022/08/21 12:21:18;;;;;;;3.60;2.93;;;32.40;26.30;;;;;;5099608;28;20451;-91
2022/08/21 12:23:49;;;;;;;7.50;2.80;;;32.70;26.60;;;;;;5079840;28;20803;-89
2022/08/21 12:26:27;;;;;;;4.80;3.13;;;32.70;26.50;;;;;;5059565;28;20444;-88
2022/08/21 12:29:13;;;;;;;3.27;2.80;;;32.90;26.00;;;;;;5053757;28;20474;-88
2022/08/21 12:31:57;;;;;;;4.23;3.07;;;32.80;26.10;;;;;;5080211;28;20482;-88
2022/08/21 12:34:32;;;;;;;5.50;2.80;;;32.70;25.30;;;;;;5075053;28;20436;-88
2022/08/21 12:37:03;;;;;;;5.23;3.00;;;32.90;25.70;;;;;;5050445;28;20474;-88
2022/08/21 12:39:32;;;;;;;3.20;2.90;;;33.00;24.90;;;;;;5065818;28;20471;-88
2022/08/21 12:42:07;;;;;;;3.77;3.20;;;33.20;25.00;;;;;;5060378;28;20482;-89
2022/08/21 12:44:41;;;;;;;5.57;2.90;;;33.40;24.80;;;;;;5079252;28;20443;-91
2022/08/21 12:47:17;;;;;;;4.23;2.50;;;33.30;23.60;;;;;;5043362;28;20467;-89
2022/08/21 12:49:55;;;;;;;3.43;2.57;;;33.00;24.40;;;;;;5092190;28;20539;-88
2022/08/21 12:52:25;;;;;;;4.20;2.50;;;33.00;24.40;;;;;;5040778;28;20471;-88
2022/08/21 12:54:52;;;;;;;3.17;2.63;;;33.20;24.80;;;;;;5077834;28;20454;-87
2022/08/21 12:57:24;;;;;;;3.50;2.47;;;33.30;24.50;;;;;;5052510;28;20982;-87
2022/08/21 12:59:56;;;;;;;3.83;3.00;;;33.50;24.20;;;;;;5079686;28;20439;-89